Time,TemperatureF,DewpointF,PressureIn,WindDirection,WindDirectionDegrees,WindSpeedMPH,WindSpeedGustMPH,Humidity,HourlyPrecipIn,Conditions,Clouds,dailyrainin,SoftwareType,DateUTC
2013-08-25 00:00:00,65.1,58.8,29.92,North,0,0.0,0.0,80,0.00,SCT,,0.00,WeatherDisplay:10.37,2013-08-25 04:00:00,
2013-08-25 00:01:00,65.1,58.8,29.92,North,0,0.0,0.0,80,0.00,SCT,,0.00,WeatherDisplay:10.37,2013-08-25 04:01:00,
2013-08-25 00:02:00,65.1,58.8,29.92,North,0,0.0,0.0,80,0.00,SCT,,0.00,WeatherDisplay:10.37,2013-08-25 04:02:00,
2013-08-25 00:03:00,65.1,58.8,29.92,North,0,0.0,0.0,80,0.00,SCT,,0.00,WeatherDisplay:10.37,2013-08-25 04:03:00,
2013-08-25 00:08:00,64.9,58.3,29.92,North,0,0.0,0.0,79,0.00,SCT,,0.00,WeatherDisplay:10.37,2013-08-25 04:08:00,
2013-08-25 00:13:00,64.8,58.4,29.92,North,0,0.0,0.0,80,0.00,SCT,,0.00,WeatherDisplay:10.37,2013-08-25 04:13:00,
2013-08-25 00:18:00,64.8,58.4,29.92,North,0,0.0,0.0,80,0.00,CLR,,0.00,WeatherDisplay:10.37,2013-08-25 04:18:00,
2013-08-25 00:23:00,64.8,58.1,29.92,North,0,0.0,0.0,79,0.00,CLR,,0.00,WeatherDisplay:10.37,2013-08-25 04:23:00,
2013-08-25 00:28:00,64.4,58.1,29.92,North,0,0.0,0.0,80,0.00,CLR,,0.00,WeatherDisplay:10.37,2013-08-25 04:28:00,
2013-08-25 00:33:00,64.6,58.3,29.92,North,0,0.0,0.0,80,0.00,CLR,,0.00,WeatherDisplay:10.37,2013-08-25 04:33:00,
2013-08-25 00:38:00,64.4,58.1,29.92,North,0,0.0,0.0,80,0.00,CLR,,0.00,WeatherDisplay:10.37,2013-08-25 04:38:00,
2013-08-25 00:43:00,64.2,57.9,29.92,North,0,0.0,0.0,80,0.00,CLR,,0.00,WeatherDisplay:10.37,2013-08-25 04:43:00,
2013-08-25 00:48:00,64.2,58.3,29.92,North,0,0.0,0.0,81,0.00,CLR,,0.00,WeatherDisplay:10.37,2013-08-25 04:48:00,
2013-08-25 00:53:00,63.9,57.9,29.92,North,0,0.0,0.0,81,0.00,CLR,,0.00,WeatherDisplay:10.37,2013-08-25 04:53:00,
2013-08-25 00:58:00,63.9,57.9,29.92,North,0,0.0,0.0,81,0.00,CLR,,0.00,WeatherDisplay:10.37,2013-08-25 04:58:00,
2013-08-25 01:03:00,63.7,57.7,29.92,North,0,0.0,0.0,81,0.00,CLR,,0.00,WeatherDisplay:10.37,2013-08-25 05:03:00,
2013-08-25 01:08:00,63.5,57.6,29.92,North,0,0.0,0.0,81,0.00,CLR,,0.00,WeatherDisplay:10.37,2013-08-25 05:08:00,
2013-08-25 01:13:00,63.3,57.7,29.92,North,0,0.0,0.0,82,0.00,CLR,,0.00,WeatherDisplay:10.37,2013-08-25 05:13:00,
2013-08-25 01:18:00,63.3,57.7,29.92,North,0,0.0,0.0,82,0.00,CLR,,0.00,WeatherDisplay:10.37,2013-08-25 05:18:00,
2013-08-25 01:23:00,63.1,57.6,29.92,North,0,0.0,0.0,82,0.00,CLR,,0.00,WeatherDisplay:10.37,2013-08-25 05:23:00,
2013-08-25 01:28:00,63.1,57.6,29.92,North,0,0.0,0.0,82,0.00,CLR,,0.00,WeatherDisplay:10.37,2013-08-25 05:28:00,
2013-08-25 01:33:00,63.0,57.4,29.92,North,0,0.0,0.0,82,0.00,CLR,,0.00,WeatherDisplay:10.37,2013-08-25 05:33:00,
2013-08-25 01:38:00,63.0,57.4,29.92,North,0,0.0,0.0,82,0.00,CLR,,0.00,WeatherDisplay:10.37,2013-08-25 05:38:00,
2013-08-25 01:43:00,62.8,57.2,29.92,North,0,0.0,0.0,82,0.00,CLR,,0.00,WeatherDisplay:10.37,2013-08-25 05:43:00,
2013-08-25 01:48:00,62.8,57.2,29.92,North,0,0.0,0.0,82,0.00,CLR,,0.00,WeatherDisplay:10.37,2013-08-25 05:48:00,
2013-08-25 01:53:00,62.6,57.0,29.92,North,0,0.0,0.0,82,0.00,CLR,,0.00,WeatherDisplay:10.37,2013-08-25 05:53:00,
2013-08-25 01:58:00,62.6,57.0,29.92,North,0,0.0,0.0,82,0.00,CLR,,0.00,WeatherDisplay:10.37,2013-08-25 05:58:00,
2013-08-25 02:03:00,62.4,56.9,29.92,North,0,0.0,0.0,82,0.00,CLR,,0.00,WeatherDisplay:10.37,2013-08-25 06:03:00,
2013-08-25 02:08:00,62.2,57.0,29.92,North,0,0.0,0.0,83,0.00,CLR,,0.00,WeatherDisplay:10.37,2013-08-25 06:08:00,
2013-08-25 02:13:00,62.2,57.0,29.92,North,0,0.0,0.0,83,0.00,CLR,,0.00,WeatherDisplay:10.37,2013-08-25 06:13:00,
2013-08-25 02:18:00,62.4,57.2,29.92,North,0,0.0,0.0,83,0.00,CLR,,0.00,WeatherDisplay:10.37,2013-08-25 06:18:00,
2013-08-25 02:23:00,62.2,57.0,29.92,North,0,0.0,0.0,83,0.00,CLR,,0.00,WeatherDisplay:10.37,2013-08-25 06:23:00,
2013-08-25 02:28:00,62.2,57.0,29.92,North,0,0.0,0.0,83,0.00,CLR,,0.00,WeatherDisplay:10.37,2013-08-25 06:28:00,
2013-08-25 02:33:00,62.1,56.8,29.92,North,0,0.0,0.0,83,0.00,CLR,,0.00,WeatherDisplay:10.37,2013-08-25 06:33:00,
2013-08-25 02:38:00,61.7,56.5,29.92,North,0,0.0,0.0,83,0.00,CLR,,0.00,WeatherDisplay:10.37,2013-08-25 06:38:00,
2013-08-25 02:43:00,61.5,56.3,29.92,North,0,0.0,0.0,83,0.00,CLR,,0.00,WeatherDisplay:10.37,2013-08-25 06:43:00,
2013-08-25 02:48:00,61.7,56.8,29.92,North,0,0.0,0.0,84,0.00,CLR,,0.00,WeatherDisplay:10.37,2013-08-25 06:48:00,
2013-08-25 02:53:00,61.5,56.3,29.92,North,0,0.0,0.0,83,0.00,CLR,,0.00,WeatherDisplay:10.37,2013-08-25 06:53:00,
2013-08-25 02:59:00,61.3,56.1,29.92,North,0,0.0,0.0,83,0.00,CLR,,0.00,WeatherDisplay:10.37,2013-08-25 06:59:00,
2013-08-25 03:04:00,61.3,56.5,29.92,North,0,0.0,0.0,84,0.00,CLR,,0.00,WeatherDisplay:10.37,2013-08-25 07:04:00,
2013-08-25 03:09:00,61.2,56.3,29.92,North,0,0.0,0.0,84,0.00,CLR,,0.00,WeatherDisplay:10.37,2013-08-25 07:09:00,
2013-08-25 03:15:00,61.0,56.1,29.92,North,0,0.0,0.0,84,0.00,CLR,,0.00,WeatherDisplay:10.37,2013-08-25 07:15:00,
2013-08-25 03:20:00,61.0,56.1,29.92,North,0,0.0,0.0,84,0.00,CLR,,0.00,WeatherDisplay:10.37,2013-08-25 07:20:00,
2013-08-25 03:25:00,60.8,55.9,29.92,North,0,0.0,0.0,84,0.00,CLR,,0.00,WeatherDisplay:10.37,2013-08-25 07:25:00,
2013-08-25 03:30:00,60.8,55.9,29.92,North,0,0.0,0.0,84,0.00,CLR,,0.00,WeatherDisplay:10.37,2013-08-25 07:30:00,
2013-08-25 03:35:00,60.8,55.9,29.92,North,0,0.0,0.0,84,0.00,CLR,,0.00,WeatherDisplay:10.37,2013-08-25 07:35:00,
2013-08-25 03:40:00,60.8,55.9,29.92,North,0,0.0,0.0,84,0.00,CLR,,0.00,WeatherDisplay:10.37,2013-08-25 07:40:00,
2013-08-25 03:46:00,60.6,55.8,29.92,North,0,0.0,0.0,84,0.00,CLR,,0.00,WeatherDisplay:10.37,2013-08-25 07:46:00,
2013-08-25 03:51:00,60.6,55.8,29.92,North,0,0.0,0.0,84,0.00,CLR,,0.00,WeatherDisplay:10.37,2013-08-25 07:51:00,
2013-08-25 03:56:00,60.6,55.8,29.92,North,0,0.0,0.0,84,0.00,CLR,,0.00,WeatherDisplay:10.37,2013-08-25 07:56:00,
2013-08-25 04:01:00,60.4,55.6,29.92,North,0,0.0,0.0,84,0.00,CLR,,0.00,WeatherDisplay:10.37,2013-08-25 08:01:00,
2013-08-25 04:06:00,60.6,55.8,29.92,North,0,0.0,0.0,84,0.00,CLR,,0.00,WeatherDisplay:10.37,2013-08-25 08:06:00,
2013-08-25 04:11:00,60.6,56.1,29.92,North,0,0.0,0.0,85,0.00,CLR,,0.00,WeatherDisplay:10.37,2013-08-25 08:11:00,
2013-08-25 04:16:00,60.4,55.9,29.92,North,0,0.0,0.0,85,0.00,CLR,,0.00,WeatherDisplay:10.37,2013-08-25 08:16:00,
2013-08-25 04:21:00,60.3,55.7,29.92,North,0,0.0,0.0,85,0.00,CLR,,0.00,WeatherDisplay:10.37,2013-08-25 08:21:00,
2013-08-25 04:26:00,60.3,55.7,29.92,North,0,0.0,0.0,85,0.00,CLR,,0.00,WeatherDisplay:10.37,2013-08-25 08:26:00,
2013-08-25 04:31:00,60.3,55.7,29.92,North,0,0.0,0.0,85,0.00,CLR,,0.00,WeatherDisplay:10.37,2013-08-25 08:31:00,
2013-08-25 04:36:00,60.3,55.7,29.92,North,0,0.0,0.0,85,0.00,CLR,,0.00,WeatherDisplay:10.37,2013-08-25 08:36:00,
2013-08-25 04:41:00,60.1,55.2,29.92,North,0,0.0,0.0,84,0.00,CLR,,0.00,WeatherDisplay:10.37,2013-08-25 08:41:00,
2013-08-25 04:46:00,60.1,55.2,29.92,North,0,0.0,0.0,84,0.00,CLR,,0.00,WeatherDisplay:10.37,2013-08-25 08:46:00,
2013-08-25 04:51:00,60.1,55.2,29.92,North,0,0.0,0.0,84,0.00,CLR,,0.00,WeatherDisplay:10.37,2013-08-25 08:51:00,
2013-08-25 04:56:00,60.3,55.7,29.92,North,0,0.0,0.0,85,0.00,CLR,,0.00,WeatherDisplay:10.37,2013-08-25 08:56:00,
2013-08-25 05:01:00,59.9,55.1,29.92,North,0,0.0,0.0,84,0.00,CLR,,0.00,WeatherDisplay:10.37,2013-08-25 09:01:00,
2013-08-25 05:06:00,59.9,55.1,29.92,North,0,0.0,0.0,84,0.00,CLR,,0.00,WeatherDisplay:10.37,2013-08-25 09:06:00,
2013-08-25 05:11:00,59.9,55.4,29.92,North,0,0.0,0.0,85,0.00,CLR,,0.00,WeatherDisplay:10.37,2013-08-25 09:11:00,
2013-08-25 05:16:00,59.7,55.2,29.92,North,0,0.0,0.0,85,0.00,CLR,,0.00,WeatherDisplay:10.37,2013-08-25 09:16:00,
2013-08-25 05:21:00,59.7,55.2,29.92,North,0,0.0,0.0,85,0.00,CLR,,0.00,WeatherDisplay:10.37,2013-08-25 09:21:00,
2013-08-25 05:26:00,59.9,55.4,29.92,North,0,0.0,0.0,85,0.00,CLR,,0.00,WeatherDisplay:10.37,2013-08-25 09:26:00,
2013-08-25 05:31:00,59.9,55.4,29.92,North,0,0.0,0.0,85,0.00,CLR,,0.00,WeatherDisplay:10.37,2013-08-25 09:31:00,
2013-08-25 05:36:00,59.5,55.0,29.92,North,0,0.0,0.0,85,0.00,CLR,,0.00,WeatherDisplay:10.37,2013-08-25 09:36:00,
2013-08-25 05:41:00,59.5,55.0,29.92,North,0,0.0,0.0,85,0.00,CLR,,0.00,WeatherDisplay:10.37,2013-08-25 09:41:00,
2013-08-25 05:46:00,59.5,55.0,29.92,North,0,0.0,0.0,85,0.00,CLR,,0.00,WeatherDisplay:10.37,2013-08-25 09:46:00,
2013-08-25 05:51:00,59.5,55.0,29.92,North,0,0.0,0.0,85,0.00,CLR,,0.00,WeatherDisplay:10.37,2013-08-25 09:51:00,
2013-08-25 05:57:00,59.5,55.0,29.92,North,0,0.0,0.0,85,0.00,CLR,,0.00,WeatherDisplay:10.37,2013-08-25 09:57:00,
2013-08-25 06:02:00,59.4,54.8,29.92,North,0,0.0,0.0,85,0.00,CLR,,0.00,WeatherDisplay:10.37,2013-08-25 10:02:00,
2013-08-25 06:07:00,59.4,54.8,29.92,North,0,0.0,0.0,85,0.00,CLR,,0.00,WeatherDisplay:10.37,2013-08-25 10:07:00,
2013-08-25 06:12:00,59.2,54.7,29.92,North,0,0.0,0.0,85,0.00,CLR,,0.00,WeatherDisplay:10.37,2013-08-25 10:12:00,
2013-08-25 06:17:00,59.4,54.8,29.92,North,0,0.0,0.0,85,0.00,CLR,,0.00,WeatherDisplay:10.37,2013-08-25 10:17:00,
2013-08-25 06:22:00,59.2,54.7,29.92,North,0,0.0,0.0,85,0.00,CLR,,0.00,WeatherDisplay:10.37,2013-08-25 10:22:00,
2013-08-25 06:27:00,59.4,54.8,29.92,North,0,0.0,0.0,85,0.00,CLR,,0.00,WeatherDisplay:10.37,2013-08-25 10:27:00,
2013-08-25 06:32:00,59.2,54.7,29.92,North,0,0.0,0.0,85,0.00,CLR,,0.00,WeatherDisplay:10.37,2013-08-25 10:32:00,
2013-08-25 06:37:00,59.2,54.7,29.92,North,0,0.0,0.0,85,0.00,CLR,,0.00,WeatherDisplay:10.37,2013-08-25 10:37:00,
2013-08-25 06:42:00,59.2,54.7,29.92,North,0,0.0,0.0,85,0.00,CLR,,0.00,WeatherDisplay:10.37,2013-08-25 10:42:00,
2013-08-25 06:47:00,59.2,54.7,29.92,North,0,0.0,0.0,85,0.00,CLR,,0.00,WeatherDisplay:10.37,2013-08-25 10:47:00,
2013-08-25 06:52:00,59.2,54.7,29.92,North,0,0.0,0.0,85,0.00,CLR,,0.00,WeatherDisplay:10.37,2013-08-25 10:52:00,
2013-08-25 06:57:00,59.4,55.2,29.92,North,0,0.0,0.0,86,0.00,CLR,,0.00,WeatherDisplay:10.37,2013-08-25 10:57:00,
2013-08-25 07:02:00,59.5,55.3,29.92,North,0,0.0,0.0,86,0.00,CLR,,0.00,WeatherDisplay:10.37,2013-08-25 11:02:00,
2013-08-25 07:07:00,59.7,55.5,29.92,North,0,0.0,0.0,86,0.00,CLR,,0.00,WeatherDisplay:10.37,2013-08-25 11:07:00,
2013-08-25 07:12:00,59.7,55.2,29.92,North,0,0.0,0.0,85,0.00,CLR,,0.00,WeatherDisplay:10.37,2013-08-25 11:12:00,
2013-08-25 07:17:00,60.1,55.9,29.92,North,0,0.0,0.0,86,0.00,CLR,,0.00,WeatherDisplay:10.37,2013-08-25 11:17:00,
2013-08-25 07:22:00,60.3,55.7,29.92,North,0,0.0,0.0,85,0.00,CLR,,0.00,WeatherDisplay:10.37,2013-08-25 11:22:00,
2013-08-25 07:27:00,60.6,56.4,29.92,North,0,0.0,0.0,86,0.00,CLR,,0.00,WeatherDisplay:10.37,2013-08-25 11:27:00,
2013-08-25 07:32:00,60.6,56.4,29.92,North,0,0.0,0.0,86,0.00,CLR,,0.00,WeatherDisplay:10.37,2013-08-25 11:32:00,
2013-08-25 07:37:00,61.0,56.4,29.92,North,0,0.0,0.0,85,0.00,CLR,,0.00,WeatherDisplay:10.37,2013-08-25 11:37:00,
2013-08-25 07:42:00,61.3,56.8,29.92,North,0,0.0,0.0,85,0.00,CLR,,0.00,WeatherDisplay:10.37,2013-08-25 11:42:00,
2013-08-25 07:47:00,61.7,57.1,29.92,North,0,0.0,0.0,85,0.00,CLR,,0.00,WeatherDisplay:10.37,2013-08-25 11:47:00,
2013-08-25 07:52:00,62.1,57.5,29.92,North,0,0.0,0.0,85,0.00,CLR,,0.00,WeatherDisplay:10.37,2013-08-25 11:52:00,
2013-08-25 07:57:00,62.4,57.8,29.92,North,0,0.0,0.0,85,0.00,CLR,,0.00,WeatherDisplay:10.37,2013-08-25 11:57:00,
2013-08-25 08:02:00,62.8,57.9,29.92,North,0,0.0,0.0,84,0.00,CLR,,0.00,WeatherDisplay:10.37,2013-08-25 12:02:00,
2013-08-25 08:07:00,63.1,58.2,29.92,North,0,0.0,0.0,84,0.00,CLR,,0.00,WeatherDisplay:10.37,2013-08-25 12:07:00,
2013-08-25 08:12:00,63.9,58.9,29.92,North,0,0.0,0.0,84,0.00,CLR,,0.00,WeatherDisplay:10.37,2013-08-25 12:12:00,
2013-08-25 08:17:00,64.0,58.8,29.92,North,0,0.0,0.0,83,0.00,CLR,,0.00,WeatherDisplay:10.37,2013-08-25 12:17:00,
2013-08-25 08:22:00,64.8,59.5,29.92,North,0,0.0,0.0,83,0.00,CLR,,0.00,WeatherDisplay:10.37,2013-08-25 12:22:00,
2013-08-25 08:27:00,65.3,60.0,29.92,North,0,0.0,0.0,83,0.00,CLR,,0.00,WeatherDisplay:10.37,2013-08-25 12:27:00,
2013-08-25 08:32:00,65.8,60.2,29.92,North,0,0.0,0.0,82,0.00,CLR,,0.00,WeatherDisplay:10.37,2013-08-25 12:32:00,
2013-08-25 08:37:00,66.4,60.7,29.92,North,0,0.0,0.0,82,0.00,CLR,,0.00,WeatherDisplay:10.37,2013-08-25 12:37:00,
2013-08-25 08:42:00,66.7,60.7,29.92,North,0,0.0,0.0,81,0.00,CLR,,0.00,WeatherDisplay:10.37,2013-08-25 12:42:00,
2013-08-25 08:47:00,67.1,60.7,29.92,North,0,0.0,0.0,80,0.00,CLR,,0.00,WeatherDisplay:10.37,2013-08-25 12:47:00,
2013-08-25 08:52:00,67.1,60.7,29.92,North,0,0.0,0.0,80,0.00,CLR,,0.00,WeatherDisplay:10.37,2013-08-25 12:52:00,
2013-08-25 08:57:00,67.5,60.7,29.92,North,0,0.0,0.0,79,0.00,CLR,,0.00,WeatherDisplay:10.37,2013-08-25 12:57:00,
2013-08-25 09:02:00,67.5,60.7,29.92,North,0,0.0,0.0,79,0.00,CLR,,0.00,WeatherDisplay:10.37,2013-08-25 13:02:00,
2013-08-25 09:07:00,67.8,61.1,29.92,North,0,0.0,0.0,79,0.00,CLR,,0.00,WeatherDisplay:10.37,2013-08-25 13:07:00,
2013-08-25 09:12:00,68.2,61.4,29.92,North,0,0.0,0.0,79,0.00,CLR,,0.00,WeatherDisplay:10.37,2013-08-25 13:12:00,
2013-08-25 09:17:00,68.5,61.0,29.92,North,0,0.0,0.0,77,0.00,CLR,,0.00,WeatherDisplay:10.37,2013-08-25 13:17:00,
2013-08-25 09:22:00,69.3,61.0,29.92,North,0,0.0,0.0,75,0.00,CLR,,0.00,WeatherDisplay:10.37,2013-08-25 13:22:00,
2013-08-25 09:27:00,70.0,60.9,29.92,North,0,0.0,0.0,73,0.00,CLR,,0.00,WeatherDisplay:10.37,2013-08-25 13:27:00,
2013-08-25 09:32:00,70.2,60.3,29.92,North,0,0.0,0.0,71,0.00,CLR,,0.00,WeatherDisplay:10.37,2013-08-25 13:32:00,
2013-08-25 09:37:00,70.3,60.1,29.92,North,0,0.0,0.0,70,0.00,CLR,,0.00,WeatherDisplay:10.37,2013-08-25 13:37:00,
2013-08-25 09:42:00,70.9,60.2,29.92,North,0,0.0,0.0,69,0.00,CLR,,0.00,WeatherDisplay:10.37,2013-08-25 13:42:00,
2013-08-25 09:47:00,71.1,60.0,29.92,North,0,0.0,0.0,68,0.00,CLR,,0.00,WeatherDisplay:10.37,2013-08-25 13:47:00,
2013-08-25 09:52:00,71.2,59.7,29.92,North,0,0.0,0.0,67,0.00,CLR,,0.00,WeatherDisplay:10.37,2013-08-25 13:52:00,
2013-08-25 09:57:00,71.6,60.1,29.92,North,0,0.0,0.0,67,0.00,CLR,,0.00,WeatherDisplay:10.37,2013-08-25 13:57:00,
2013-08-25 10:02:00,72.1,60.6,29.92,North,0,0.0,0.0,67,0.00,CLR,,0.00,WeatherDisplay:10.37,2013-08-25 14:02:00,
2013-08-25 10:07:00,72.5,60.5,29.92,North,0,0.0,0.0,66,0.00,CLR,,0.00,WeatherDisplay:10.37,2013-08-25 14:07:00,
2013-08-25 10:12:00,72.5,60.1,29.92,North,0,0.0,0.0,65,0.00,CLR,,0.00,WeatherDisplay:10.37,2013-08-25 14:12:00,
2013-08-25 10:17:00,72.7,60.2,29.92,North,0,0.0,0.0,65,0.00,CLR,,0.00,WeatherDisplay:10.37,2013-08-25 14:17:00,
2013-08-25 10:22:00,72.9,60.4,29.92,North,0,0.0,0.0,65,0.00,CLR,,0.00,WeatherDisplay:10.37,2013-08-25 14:22:00,
2013-08-25 10:27:00,73.0,60.1,29.92,North,0,0.0,0.0,64,0.00,CLR,,0.00,WeatherDisplay:10.37,2013-08-25 14:27:00,
2013-08-25 10:32:00,73.4,60.9,29.92,North,0,0.0,0.0,65,0.00,CLR,,0.00,WeatherDisplay:10.37,2013-08-25 14:32:00,
2013-08-25 10:37:00,73.9,61.4,29.92,North,0,0.0,0.0,65,0.00,CLR,,0.00,WeatherDisplay:10.37,2013-08-25 14:37:00,
2013-08-25 10:42:00,74.1,61.2,29.92,North,0,0.0,0.0,64,0.00,CLR,,0.00,WeatherDisplay:10.37,2013-08-25 14:42:00,
2013-08-25 10:47:00,74.5,60.6,29.92,North,0,0.0,0.0,62,0.00,CLR,,0.00,WeatherDisplay:10.37,2013-08-25 14:47:00,
2013-08-25 10:52:00,74.5,60.1,29.92,North,0,0.0,0.0,61,0.00,CLR,,0.00,WeatherDisplay:10.37,2013-08-25 14:52:00,
2013-08-25 10:57:00,75.0,60.2,29.92,North,0,0.0,0.0,60,0.00,CLR,,0.00,WeatherDisplay:10.37,2013-08-25 14:57:00,
2013-08-25 11:02:00,75.4,60.1,29.92,North,0,0.0,0.0,59,0.00,CLR,,0.00,WeatherDisplay:10.37,2013-08-25 15:02:00,
2013-08-25 11:07:00,76.1,61.2,29.92,North,0,0.0,0.0,60,0.00,CLR,,0.00,WeatherDisplay:10.37,2013-08-25 15:07:00,
2013-08-25 11:12:00,76.8,60.9,29.92,North,0,0.0,0.0,58,0.00,CLR,,0.00,WeatherDisplay:10.37,2013-08-25 15:12:00,
2013-08-25 11:17:00,77.0,60.6,29.92,North,0,0.0,0.0,57,0.00,CLR,,0.00,WeatherDisplay:10.37,2013-08-25 15:17:00,
2013-08-25 11:22:00,77.2,60.8,29.92,North,0,0.0,0.0,57,0.00,CLR,,0.00,WeatherDisplay:10.37,2013-08-25 15:22:00,
2013-08-25 11:27:00,77.5,60.1,29.92,North,0,0.0,0.0,55,0.00,CLR,,0.00,WeatherDisplay:10.37,2013-08-25 15:27:00,
2013-08-25 11:32:00,77.7,60.8,29.92,North,0,0.0,0.0,56,0.00,CLR,,0.00,WeatherDisplay:10.37,2013-08-25 15:32:00,
2013-08-25 11:37:00,77.7,60.8,29.92,North,0,0.0,0.0,56,0.00,CLR,,0.00,WeatherDisplay:10.37,2013-08-25 15:37:00,
2013-08-25 11:42:00,77.7,60.3,29.92,North,0,0.0,0.0,55,0.00,CLR,,0.00,WeatherDisplay:10.37,2013-08-25 15:42:00,
2013-08-25 11:47:00,77.9,59.4,29.92,North,0,0.0,0.0,53,0.00,CLR,,0.00,WeatherDisplay:10.37,2013-08-25 15:47:00,
2013-08-25 11:52:00,77.9,59.4,29.92,North,0,0.0,0.0,53,0.00,CLR,,0.00,WeatherDisplay:10.37,2013-08-25 15:52:00,
2013-08-25 11:57:00,77.9,59.4,29.92,North,0,0.0,0.0,53,0.00,CLR,,0.00,WeatherDisplay:10.37,2013-08-25 15:57:00,
2013-08-25 12:02:00,77.9,16.9,30.33,South,180,0.0,0.0,10,0.00,CLR,,0.00,WeatherDisplay:10.37,2013-08-25 16:02:00,
2013-08-25 12:07:00,78.6,60.1,30.33,South,180,4.6,4.6,53,0.00,CLR,,0.00,WeatherDisplay:10.37,2013-08-25 16:07:00,
2013-08-25 12:12:00,79.0,59.9,30.33,WSW,248,3.6,3.6,52,0.00,CLR,,0.00,WeatherDisplay:10.37,2013-08-25 16:12:00,
2013-08-25 12:17:00,79.3,59.6,30.33,NW,315,2.6,2.6,51,0.00,CLR,,0.00,WeatherDisplay:10.37,2013-08-25 16:17:00,
2013-08-25 12:22:00,79.0,59.9,30.33,SSW,202,3.5,3.5,52,0.00,CLR,,0.00,WeatherDisplay:10.37,2013-08-25 16:22:00,
2013-08-25 12:27:00,78.8,59.1,30.31,South,180,2.3,2.3,51,0.00,CLR,,0.00,WeatherDisplay:10.37,2013-08-25 16:27:00,
2013-08-25 12:32:00,78.8,58.0,30.31,South,180,4.6,4.6,49,0.00,CLR,,0.00,WeatherDisplay:10.37,2013-08-25 16:32:00,
2013-08-25 12:37:00,78.8,58.0,30.31,SSE,158,5.8,5.8,49,0.00,CLR,,0.00,WeatherDisplay:10.37,2013-08-25 16:37:00,
2013-08-25 12:42:00,79.2,60.0,30.31,NW,315,3.5,3.6,52,0.00,CLR,,0.00,WeatherDisplay:10.37,2013-08-25 16:42:00,
2013-08-25 12:47:00,78.8,60.2,30.30,WNW,292,3.5,3.5,53,0.00,CLR,,0.00,WeatherDisplay:10.37,2013-08-25 16:47:00,
2013-08-25 12:52:00,78.6,59.5,30.30,ENE,68,5.8,5.8,52,0.00,CLR,,0.00,WeatherDisplay:10.37,2013-08-25 16:52:00,
2013-08-25 12:57:00,78.8,59.1,30.30,WNW,292,6.0,6.0,51,0.00,CLR,,0.00,WeatherDisplay:10.37,2013-08-25 16:57:00,
2013-08-25 13:02:00,79.0,59.9,30.30,WNW,292,3.6,3.6,52,0.00,CLR,,0.00,WeatherDisplay:10.37,2013-08-25 17:02:00,
2013-08-25 13:07:00,79.0,60.4,30.30,WNW,292,3.6,3.6,53,0.00,CLR,,0.00,WeatherDisplay:10.37,2013-08-25 17:07:00,
2013-08-25 13:12:00,78.6,57.9,30.30,South,180,8.6,8.6,49,0.00,CLR,,0.00,WeatherDisplay:10.37,2013-08-25 17:12:00,
2013-08-25 13:17:00,78.8,57.4,30.30,South,180,6.9,6.9,48,0.00,CLR,,0.00,WeatherDisplay:10.37,2013-08-25 17:17:00,
2013-08-25 13:22:00,79.0,57.6,30.30,SW,225,7.2,7.2,48,0.00,CLR,,0.00,WeatherDisplay:10.37,2013-08-25 17:22:00,
2013-08-25 13:27:00,79.2,57.8,30.30,South,180,5.1,5.1,48,0.00,CLR,,0.00,WeatherDisplay:10.37,2013-08-25 17:27:00,
2013-08-25 13:32:00,79.5,57.5,30.30,South,180,8.1,8.1,47,0.00,CLR,,0.00,WeatherDisplay:10.37,2013-08-25 17:32:00,
2013-08-25 13:37:00,80.4,57.7,30.30,SW,225,2.5,3.8,46,0.00,CLR,,0.00,WeatherDisplay:10.37,2013-08-25 17:37:00,
2013-08-25 13:42:00,80.8,59.3,30.30,NW,315,3.5,3.5,48,0.00,CLR,,0.00,WeatherDisplay:10.37,2013-08-25 17:42:00,
2013-08-25 13:47:00,80.8,58.1,30.29,West,270,3.5,3.5,46,0.00,CLR,,0.00,WeatherDisplay:10.37,2013-08-25 17:47:00,
2013-08-25 13:52:00,81.5,59.3,30.29,NW,315,2.3,2.3,47,0.00,CLR,,0.00,WeatherDisplay:10.37,2013-08-25 17:52:00,
2013-08-25 13:57:00,81.5,59.3,30.29,SSW,202,3.5,3.5,47,0.00,CLR,,0.00,WeatherDisplay:10.37,2013-08-25 17:57:00,
2013-08-25 14:02:00,81.5,59.3,30.29,SW,225,2.7,2.7,47,0.00,CLR,,0.00,WeatherDisplay:10.37,2013-08-25 18:02:00,
2013-08-25 14:07:00,81.9,59.7,30.28,WNW,292,8.1,8.1,47,0.00,CLR,,0.00,WeatherDisplay:10.37,2013-08-25 18:07:00,
2013-08-25 14:12:00,81.5,59.3,30.28,NW,315,3.5,3.5,47,0.00,CLR,,0.00,WeatherDisplay:10.37,2013-08-25 18:12:00,
2013-08-25 14:17:00,81.1,59.6,30.28,NW,315,3.5,3.5,48,0.00,CLR,,0.00,WeatherDisplay:10.37,2013-08-25 18:17:00,
2013-08-25 14:22:00,81.0,59.4,30.28,NW,315,2.3,2.3,48,0.00,CLR,,0.00,WeatherDisplay:10.37,2013-08-25 18:22:00,
2013-08-25 14:27:00,81.3,58.6,30.27,SSE,158,6.9,6.9,46,0.00,CLR,,0.00,WeatherDisplay:10.37,2013-08-25 18:27:00,
2013-08-25 14:32:00,81.5,58.7,30.27,SW,225,3.5,3.5,46,0.00,CLR,,0.00,WeatherDisplay:10.37,2013-08-25 18:32:00,
2013-08-25 14:37:00,81.0,57.0,30.27,SSW,202,9.2,9.2,44,0.00,CLR,,0.00,WeatherDisplay:10.37,2013-08-25 18:37:00,
2013-08-25 14:42:00,81.0,57.6,30.27,NNW,338,3.5,3.9,45,0.00,CLR,,0.00,WeatherDisplay:10.37,2013-08-25 18:42:00,
2013-08-25 14:47:00,81.0,59.4,30.26,NW,315,3.5,3.5,48,0.00,CLR,,0.00,WeatherDisplay:10.37,2013-08-25 18:47:00,
2013-08-25 14:52:00,80.8,58.1,30.26,WSW,248,2.3,2.3,46,0.00,CLR,,0.00,WeatherDisplay:10.37,2013-08-25 18:52:00,
2013-08-25 14:57:00,81.0,57.6,30.26,South,180,6.9,6.9,45,0.00,CLR,,0.00,WeatherDisplay:10.37,2013-08-25 18:57:00,
2013-08-25 15:02:00,81.1,59.0,30.26,NW,315,5.8,5.8,47,0.00,CLR,,0.00,WeatherDisplay:10.37,2013-08-25 19:02:00,
2013-08-25 15:07:00,81.0,57.0,30.27,South,180,3.5,3.5,44,0.00,CLR,,0.00,WeatherDisplay:10.37,2013-08-25 19:07:00,
2013-08-25 15:12:00,81.1,57.2,30.27,SSW,202,3.5,3.5,44,0.00,CLR,,0.00,WeatherDisplay:10.37,2013-08-25 19:12:00,
2013-08-25 15:17:00,81.5,58.1,30.27,NNE,22,2.3,2.8,45,0.00,CLR,,0.00,WeatherDisplay:10.37,2013-08-25 19:17:00,
2013-08-25 15:22:00,81.1,57.2,30.27,South,180,6.9,6.9,44,0.00,CLR,,0.00,WeatherDisplay:10.37,2013-08-25 19:22:00,
2013-08-25 15:27:00,81.5,58.1,30.26,WNW,292,3.5,3.5,45,0.00,CLR,,0.00,WeatherDisplay:10.37,2013-08-25 19:27:00,
2013-08-25 15:32:00,81.1,57.2,30.26,WSW,248,4.6,4.6,44,0.00,CLR,,0.00,WeatherDisplay:10.37,2013-08-25 19:32:00,
2013-08-25 15:37:00,81.0,57.0,30.26,South,180,4.6,4.6,44,0.00,CLR,,0.00,WeatherDisplay:10.37,2013-08-25 19:37:00,
2013-08-25 15:42:00,81.0,57.0,30.26,West,270,3.5,3.5,44,0.00,CLR,,0.00,WeatherDisplay:10.37,2013-08-25 19:42:00,
2013-08-25 15:47:00,81.1,58.4,30.25,West,270,3.5,3.5,46,0.00,CLR,,0.00,WeatherDisplay:10.37,2013-08-25 19:47:00,
2013-08-25 15:52:00,80.8,58.1,30.25,SSW,202,3.5,3.5,46,0.00,CLR,,0.00,WeatherDisplay:10.37,2013-08-25 19:52:00,
2013-08-25 15:57:00,80.8,57.5,30.25,SSW,202,4.6,4.6,45,0.00,CLR,,0.00,WeatherDisplay:10.37,2013-08-25 19:57:00,
2013-08-25 16:02:00,81.0,57.0,30.25,SSW,202,10.4,10.4,44,0.00,CLR,,0.00,WeatherDisplay:10.37,2013-08-25 20:02:00,
2013-08-25 16:07:00,81.1,57.8,30.26,SSW,202,6.9,6.9,45,0.00,CLR,,0.00,WeatherDisplay:10.37,2013-08-25 20:07:00,
2013-08-25 16:12:00,81.1,57.8,30.26,South,180,5.8,5.8,45,0.00,CLR,,0.00,WeatherDisplay:10.37,2013-08-25 20:12:00,
2013-08-25 16:17:00,81.1,59.0,30.26,West,270,3.5,3.5,47,0.00,CLR,,0.00,WeatherDisplay:10.37,2013-08-25 20:17:00,
2013-08-25 16:22:00,80.8,58.1,30.26,West,270,3.5,3.5,46,0.00,CLR,,0.00,WeatherDisplay:10.37,2013-08-25 20:22:00,
2013-08-25 16:27:00,81.0,58.8,30.24,West,270,3.5,3.5,47,0.00,CLR,,0.00,WeatherDisplay:10.37,2013-08-25 20:27:00,
2013-08-25 16:32:00,80.8,57.5,30.24,SSE,158,4.6,4.6,45,0.00,CLR,,0.00,WeatherDisplay:10.37,2013-08-25 20:32:00,
2013-08-25 16:37:00,80.6,58.5,30.24,NW,315,2.3,2.8,47,0.00,CLR,,0.00,WeatherDisplay:10.37,2013-08-25 20:37:00,
2013-08-25 16:42:00,80.6,59.1,30.24,WSW,248,4.6,4.6,48,0.00,CLR,,0.00,WeatherDisplay:10.37,2013-08-25 20:42:00,
2013-08-25 16:47:00,80.8,58.7,30.24,WNW,292,3.5,3.5,47,0.00,CLR,,0.00,WeatherDisplay:10.37,2013-08-25 20:47:00,
2013-08-25 16:52:00,81.5,59.3,30.24,South,180,0.0,1.5,47,0.00,CLR,,0.00,WeatherDisplay:10.37,2013-08-25 20:52:00,
2013-08-25 16:57:00,81.9,58.4,30.24,South,180,3.5,3.5,45,0.00,CLR,,0.00,WeatherDisplay:10.37,2013-08-25 20:57:00,
2013-08-25 17:02:00,82.0,58.0,30.24,South,180,6.9,6.9,44,0.00,CLR,,0.00,WeatherDisplay:10.37,2013-08-25 21:02:00,
2013-08-25 17:07:00,81.9,57.8,30.23,ESE,112,8.1,8.1,44,0.00,CLR,,0.00,WeatherDisplay:10.37,2013-08-25 21:07:00,
2013-08-25 17:12:00,81.7,56.4,30.23,WSW,248,4.6,4.6,42,0.00,CLR,,0.00,WeatherDisplay:10.37,2013-08-25 21:12:00,
2013-08-25 17:17:00,81.3,57.3,30.23,WSW,248,2.3,2.5,44,0.00,CLR,,0.00,WeatherDisplay:10.37,2013-08-25 21:17:00,
2013-08-25 17:22:00,81.1,57.2,30.23,WSW,248,1.2,2.2,44,0.00,CLR,,0.00,WeatherDisplay:10.37,2013-08-25 21:22:00,
2013-08-25 17:27:00,81.1,57.8,30.22,WSW,248,1.2,1.4,45,0.00,CLR,,0.00,WeatherDisplay:10.37,2013-08-25 21:27:00,
2013-08-25 17:32:00,81.0,57.6,30.22,SW,225,4.6,4.6,45,0.00,CLR,,0.00,WeatherDisplay:10.37,2013-08-25 21:32:00,
2013-08-25 17:37:00,80.8,57.5,30.22,South,180,1.2,2.2,45,0.00,CLR,,0.00,WeatherDisplay:10.37,2013-08-25 21:37:00,
2013-08-25 17:42:00,80.8,57.5,30.22,South,180,5.8,5.8,45,0.00,CLR,,0.00,WeatherDisplay:10.37,2013-08-25 21:42:00,
2013-08-25 17:47:00,80.8,56.8,30.22,SSW,202,9.2,9.2,44,0.00,CLR,,0.00,WeatherDisplay:10.37,2013-08-25 21:47:00,
2013-08-25 17:52:00,80.6,57.3,30.22,South,180,4.6,4.6,45,0.00,CLR,,0.00,WeatherDisplay:10.37,2013-08-25 21:52:00,
2013-08-25 17:57:00,80.4,57.7,30.22,WSW,248,3.5,3.7,46,0.00,CLR,,0.00,WeatherDisplay:10.37,2013-08-25 21:57:00,
2013-08-25 18:02:00,80.4,57.7,30.22,NE,45,5.8,5.8,46,0.00,CLR,,0.00,WeatherDisplay:10.37,2013-08-25 22:02:00,
2013-08-25 18:07:00,80.4,57.7,30.21,SW,225,2.3,2.3,46,0.00,CLR,,0.00,WeatherDisplay:10.37,2013-08-25 22:07:00,
2013-08-25 18:12:00,80.2,58.2,30.21,WNW,292,2.3,2.3,47,0.00,CLR,,0.00,WeatherDisplay:10.37,2013-08-25 22:12:00,
2013-08-25 18:17:00,80.1,58.0,30.21,West,270,2.3,2.3,47,0.00,CLR,,0.00,WeatherDisplay:10.37,2013-08-25 22:17:00,
2013-08-25 18:22:00,80.1,58.0,30.21,WSW,248,2.3,2.3,47,0.00,CLR,,0.00,WeatherDisplay:10.37,2013-08-25 22:22:00,
2013-08-25 18:27:00,80.1,58.0,30.20,WSW,248,2.3,2.3,47,0.00,CLR,,0.00,WeatherDisplay:10.37,2013-08-25 22:27:00,
2013-08-25 18:32:00,79.7,57.7,30.20,WSW,248,1.4,1.4,47,0.00,CLR,,0.00,WeatherDisplay:10.37,2013-08-25 22:32:00,
2013-08-25 18:37:00,79.5,56.9,30.20,South,180,5.8,5.8,46,0.00,CLR,,0.00,WeatherDisplay:10.37,2013-08-25 22:37:00,
2013-08-25 18:42:00,79.3,56.8,30.20,SSW,202,5.8,5.8,46,0.00,CLR,,0.00,WeatherDisplay:10.37,2013-08-25 22:42:00,
2013-08-25 18:47:00,79.3,57.4,30.20,SSW,202,2.3,2.7,47,0.00,CLR,,0.00,WeatherDisplay:10.37,2013-08-25 22:47:00,
2013-08-25 18:52:00,79.2,56.6,30.20,SSW,202,5.8,5.8,46,0.00,CLR,,0.00,WeatherDisplay:10.37,2013-08-25 22:52:00,
2013-08-25 18:57:00,78.8,56.3,30.20,SW,225,6.1,6.1,46,0.00,CLR,,0.00,WeatherDisplay:10.37,2013-08-25 22:57:00,
2013-08-25 19:02:00,78.6,56.7,30.20,South,180,2.3,3.3,47,0.00,CLR,,0.00,WeatherDisplay:10.37,2013-08-25 23:02:00,
2013-08-25 19:07:00,78.3,57.0,30.20,SW,225,3.5,3.5,48,0.00,CLR,,0.00,WeatherDisplay:10.37,2013-08-25 23:07:00,
2013-08-25 19:12:00,78.1,56.8,30.20,WSW,248,3.5,3.5,48,0.00,CLR,,0.00,WeatherDisplay:10.37,2013-08-25 23:12:00,
2013-08-25 19:17:00,78.1,56.8,30.20,SSW,202,3.8,3.8,48,0.00,CLR,,0.00,WeatherDisplay:10.37,2013-08-25 23:17:00,
2013-08-25 19:22:00,77.9,56.6,30.20,SSW,202,2.3,2.3,48,0.00,CLR,,0.00,WeatherDisplay:10.37,2013-08-25 23:22:00,
2013-08-25 19:27:00,77.9,56.6,30.19,SW,225,2.3,2.3,48,0.00,CLR,,0.00,WeatherDisplay:10.37,2013-08-25 23:27:00,
2013-08-25 19:32:00,77.4,56.7,30.19,West,270,1.2,1.2,49,0.00,CLR,,0.00,WeatherDisplay:10.37,2013-08-25 23:32:00,
2013-08-25 19:37:00,77.2,56.5,30.19,West,270,0.0,0.3,49,0.00,CLR,,0.00,WeatherDisplay:10.37,2013-08-25 23:37:00,
2013-08-25 19:42:00,76.8,56.2,30.19,West,270,0.0,0.3,49,0.00,CLR,,0.00,WeatherDisplay:10.37,2013-08-25 23:42:00,
2013-08-25 19:47:00,76.6,56.6,30.20,West,270,0.0,0.1,50,0.00,CLR,,0.00,WeatherDisplay:10.37,2013-08-25 23:47:00,
2013-08-25 19:52:00,76.3,56.3,30.20,WSW,248,0.0,0.0,50,0.00,CLR,,0.00,WeatherDisplay:10.37,2013-08-25 23:52:00,
2013-08-25 19:57:00,76.1,56.7,30.20,WNW,292,0.0,0.0,51,0.00,CLR,,0.00,WeatherDisplay:10.37,2013-08-25 23:57:00,
2013-08-25 20:02:00,75.9,57.0,30.20,SW,225,0.0,0.0,52,0.00,CLR,,0.00,WeatherDisplay:10.37,2013-08-26 00:02:00,
2013-08-25 20:07:00,75.7,56.9,30.20,SSE,158,0.0,0.0,52,0.00,CLR,,0.00,WeatherDisplay:10.37,2013-08-26 00:07:00,
2013-08-25 20:12:00,75.2,55.8,30.20,SSW,202,1.5,1.5,51,0.00,CLR,,0.00,WeatherDisplay:10.37,2013-08-26 00:12:00,
2013-08-25 20:17:00,75.2,56.4,30.20,WSW,248,0.0,0.4,52,0.00,CLR,,0.00,WeatherDisplay:10.37,2013-08-26 00:17:00,
2013-08-25 20:22:00,74.8,56.6,30.20,WSW,248,0.0,0.4,53,0.00,CLR,,0.00,WeatherDisplay:10.37,2013-08-26 00:22:00,
2013-08-25 20:27:00,74.7,56.9,30.20,WSW,248,0.0,0.0,54,0.00,CLR,,0.00,WeatherDisplay:10.37,2013-08-26 00:27:00,
2013-08-25 20:32:00,74.5,56.7,30.20,SW,225,0.0,0.0,54,0.00,CLR,,0.00,WeatherDisplay:10.37,2013-08-26 00:32:00,
2013-08-25 20:37:00,74.1,56.4,30.20,South,180,0.0,0.0,54,0.00,CLR,,0.00,WeatherDisplay:10.37,2013-08-26 00:37:00,
2013-08-25 20:42:00,74.1,56.4,30.20,WSW,248,1.2,1.2,54,0.00,CLR,,0.00,WeatherDisplay:10.37,2013-08-26 00:42:00,
2013-08-25 20:47:00,73.8,56.6,30.20,SSW,202,0.0,0.4,55,0.00,CLR,,0.00,WeatherDisplay:10.37,2013-08-26 00:47:00,
2013-08-25 20:52:00,73.6,57.4,30.20,West,270,0.0,0.1,57,0.00,CLR,,0.00,WeatherDisplay:10.37,2013-08-26 00:52:00,
2013-08-25 20:57:00,73.4,57.7,30.20,NW,315,0.0,0.0,58,0.00,CLR,,0.00,WeatherDisplay:10.37,2013-08-26 00:57:00,
2013-08-25 21:02:00,73.0,57.9,30.20,WSW,248,0.0,0.0,59,0.00,CLR,,0.00,WeatherDisplay:10.37,2013-08-26 01:02:00,
2013-08-25 21:07:00,72.9,57.7,30.21,SSW,202,0.0,0.0,59,0.00,CLR,,0.00,WeatherDisplay:10.37,2013-08-26 01:07:00,
2013-08-25 21:13:00,72.9,57.7,30.21,South,180,1.4,1.4,59,0.00,CLR,,0.00,WeatherDisplay:10.37,2013-08-26 01:13:00,
2013-08-25 21:18:00,72.9,57.7,30.21,WSW,248,0.0,0.4,59,0.00,CLR,,0.00,WeatherDisplay:10.37,2013-08-26 01:18:00,
2013-08-25 21:23:00,72.5,57.4,30.21,SSW,202,0.0,0.1,59,0.00,CLR,,0.00,WeatherDisplay:10.37,2013-08-26 01:23:00,
2013-08-25 21:28:00,72.5,57.4,30.21,SSW,202,2.3,2.3,59,0.00,CLR,,0.00,WeatherDisplay:10.37,2013-08-26 01:28:00,
2013-08-25 21:33:00,72.1,57.5,30.21,WSW,248,0.0,0.3,60,0.00,CLR,,0.00,WeatherDisplay:10.37,2013-08-26 01:33:00,
2013-08-25 21:38:00,72.1,57.9,30.21,WSW,248,0.0,0.3,61,0.00,CLR,,0.00,WeatherDisplay:10.37,2013-08-26 01:38:00,
2013-08-25 21:43:00,72.0,57.8,30.21,West,270,0.0,0.0,61,0.00,CLR,,0.00,WeatherDisplay:10.37,2013-08-26 01:43:00,
2013-08-25 21:48:00,71.6,57.4,30.20,SW,225,0.0,0.0,61,0.00,CLR,,0.00,WeatherDisplay:10.37,2013-08-26 01:48:00,
2013-08-25 21:53:00,71.6,57.9,30.20,West,270,0.0,0.0,62,0.00,CLR,,0.00,WeatherDisplay:10.37,2013-08-26 01:53:00,
2013-08-25 21:58:00,71.2,57.5,30.20,WSW,248,0.0,0.0,62,0.00,CLR,,0.00,WeatherDisplay:10.37,2013-08-26 01:58:00,
2013-08-25 22:03:00,71.1,57.8,30.20,SW,225,0.0,0.0,63,0.00,CLR,,0.00,WeatherDisplay:10.37,2013-08-26 02:03:00,
2013-08-25 22:08:00,71.1,57.8,30.21,SSW,202,1.3,1.3,63,0.00,CLR,,0.00,WeatherDisplay:10.37,2013-08-26 02:08:00,
2013-08-25 22:13:00,70.9,57.7,30.21,SSW,202,1.2,1.2,63,0.00,CLR,,0.00,WeatherDisplay:10.37,2013-08-26 02:13:00,
2013-08-25 22:18:00,70.7,57.5,30.21,South,180,0.0,0.5,63,0.00,CLR,,0.00,WeatherDisplay:10.37,2013-08-26 02:18:00,
2013-08-25 22:23:00,70.7,57.5,30.21,South,180,2.3,2.3,63,0.00,CLR,,0.00,WeatherDisplay:10.37,2013-08-26 02:23:00,
2013-08-25 22:28:00,70.7,57.5,30.22,South,180,3.5,3.5,63,0.00,CLR,,0.00,WeatherDisplay:10.37,2013-08-26 02:28:00,
2013-08-25 22:33:00,70.9,57.2,30.22,SSW,202,3.5,3.5,62,0.00,CLR,,0.00,WeatherDisplay:10.37,2013-08-26 02:33:00,
2013-08-25 22:38:00,70.9,57.2,30.22,SSW,202,2.3,2.7,62,0.00,CLR,,0.00,WeatherDisplay:10.37,2013-08-26 02:38:00,
2013-08-25 22:43:00,70.7,57.5,30.22,SSW,202,2.3,2.3,63,0.00,CLR,,0.00,WeatherDisplay:10.37,2013-08-26 02:43:00,
2013-08-25 22:48:00,70.7,57.5,30.21,South,180,3.5,3.5,63,0.00,CLR,,0.00,WeatherDisplay:10.37,2013-08-26 02:48:00,
2013-08-25 22:53:00,70.5,57.3,30.21,SW,225,3.5,3.5,63,0.00,CLR,,0.00,WeatherDisplay:10.37,2013-08-26 02:53:00,
2013-08-25 22:58:00,70.7,57.9,30.21,SW,225,3.5,3.5,64,0.00,CLR,,0.00,WeatherDisplay:10.37,2013-08-26 02:58:00,
2013-08-25 23:03:00,70.7,57.9,30.21,SW,225,1.2,1.5,64,0.00,CLR,,0.00,WeatherDisplay:10.37,2013-08-26 03:03:00,
2013-08-25 23:08:00,70.7,57.9,30.21,South,180,2.3,2.3,64,0.00,CLR,,0.00,WeatherDisplay:10.37,2013-08-26 03:08:00,
2013-08-25 23:13:00,70.3,58.0,30.21,South,180,2.3,2.3,65,0.00,CLR,,0.00,WeatherDisplay:10.37,2013-08-26 03:13:00,
2013-08-25 23:18:00,70.2,57.8,30.21,South,180,3.5,3.5,65,0.00,CLR,,0.00,WeatherDisplay:10.37,2013-08-26 03:18:00,
2013-08-25 23:23:00,70.2,57.8,30.21,SW,225,2.3,2.3,65,0.00,CLR,,0.00,WeatherDisplay:10.37,2013-08-26 03:23:00,
2013-08-25 23:28:00,69.8,57.9,30.20,SSW,202,1.2,1.4,66,0.00,CLR,,0.00,WeatherDisplay:10.37,2013-08-26 03:28:00,
2013-08-25 23:33:00,69.6,57.8,30.20,South,180,2.3,2.3,66,0.00,CLR,,0.00,WeatherDisplay:10.37,2013-08-26 03:33:00,
2013-08-25 23:38:00,69.6,57.8,30.20,South,180,3.5,3.5,66,0.00,CLR,,0.00,WeatherDisplay:10.37,2013-08-26 03:38:00,
2013-08-25 23:43:00,69.4,57.6,30.20,SSW,202,2.3,2.3,66,0.00,CLR,,0.00,WeatherDisplay:10.37,2013-08-26 03:43:00,
2013-08-25 23:48:00,69.4,57.6,30.20,SW,225,3.5,3.5,66,0.00,CLR,,0.00,WeatherDisplay:10.37,2013-08-26 03:48:00,
2013-08-25 23:53:00,69.3,57.4,30.20,SSW,202,0.0,0.8,66,0.00,CLR,,0.00,WeatherDisplay:10.37,2013-08-26 03:53:00,
2013-08-25 23:58:00,69.1,57.7,30.20,South,180,1.2,1.2,67,0.00,CLR,,0.00,WeatherDisplay:10.37,2013-08-26 03:58:00,